Time;durP1;ratioP1;P1;durP2;ratioP2;P2;SDS_P1;SDS_P2;PMS_P1;PMS_P2;Temp;Humidity;BMP_temperature;BMP_pressure;BME280_temperature;BME280_humidity;BME280_pressure;Samples;Min_cycle;Max_cycle;Signal;HPM_P1;HPM_P2
2023/10/08 00:01:42;;;;;;;1.30;0.40;;;;;;;10.61;100.00;100577.34;105062;1259;81508;-60
2023/10/08 00:04:11;;;;;;;0.80;0.40;;;;;;;10.56;100.00;100591.13;105086;1260;73051;-60
2023/10/08 00:06:39;;;;;;;1.20;0.30;;;;;;;10.52;100.00;100594.42;105163;1262;69139;-60
2023/10/08 00:09:08;;;;;;;2.70;0.50;;;;;;;10.48;100.00;100584.06;105072;1262;69205;-60
2023/10/08 00:11:39;;;;;;;1.10;0.40;;;;;;;10.45;100.00;100576.99;105081;1262;73826;-60
2023/10/08 00:14:10;;;;;;;0.80;0.30;;;;;;;10.42;100.00;100571.52;105065;1262;81556;-60
2023/10/08 00:16:39;;;;;;;1.60;0.60;;;;;;;10.42;100.00;100564.34;105079;1260;71846;-60
2023/10/08 00:19:09;;;;;;;1.70;0.50;;;;;;;10.43;100.00;100565.89;105088;1259;69190;-60
2023/10/08 00:21:38;;;;;;;0.90;0.30;;;;;;;10.43;100.00;100562.75;105112;1262;69215;-60
2023/10/08 00:24:07;;;;;;;1.60;0.30;;;;;;;10.40;100.00;100567.56;105106;1262;74947;-60
2023/10/08 00:26:39;;;;;;;0.90;0.40;;;;;;;10.38;100.00;100560.46;105103;1262;81542;-60
2023/10/08 00:29:15;;;;;;;2.10;0.50;;;;;;;10.40;100.00;100556.57;105057;1260;71701;-60
2023/10/08 00:31:45;;;;;;;1.50;0.40;;;;;;;10.40;100.00;100552.17;105050;1258;69150;-60
2023/10/08 00:34:14;;;;;;;1.90;0.40;;;;;;;10.40;100.00;100549.40;105123;1260;69200;-60
2023/10/08 00:36:44;;;;;;;0.80;0.40;;;;;;;10.39;100.00;100552.73;105128;1260;73696;-60
2023/10/08 00:39:22;;;;;;;1.60;0.40;;;;;;;10.38;100.00;100553.30;105091;1262;81438;-60
2023/10/08 00:41:58;;;;;;;1.00;0.30;;;;;;;10.38;100.00;100560.83;105100;1262;70904;-61
2023/10/08 00:44:35;;;;;;;1.40;0.30;;;;;;;10.38;100.00;100558.56;105035;1260;69182;-60
2023/10/08 00:47:05;;;;;;;1.70;0.30;;;;;;;10.38;100.00;100554.35;105111;1259;69097;-61
2023/10/08 00:49:48;;;;;;;2.90;0.40;;;;;;;10.38;100.00;100548.25;105090;1259;73759;-60
2023/10/08 00:57:23;;;;;;;2.90;0.50;;;;;;;10.37;100.00;100545.30;105111;1260;69241;-59
2023/10/08 00:59:55;;;;;;;1.60;0.40;;;;;;;10.35;100.00;100549.38;105117;1262;69229;-59
2023/10/08 01:02:44;;;;;;;0.50;0.30;;;;;;;10.35;100.00;100555.69;105099;1259;72537;-59
2023/10/08 01:05:17;;;;;;;1.50;0.60;;;;;;;10.34;100.00;100569.33;105071;1261;80417;-59
2023/10/08 01:07:48;;;;;;;1.00;0.40;;;;;;;10.33;100.00;100563.42;104987;1260;71712;-59
2023/10/08 01:10:20;;;;;;;1.80;0.70;;;;;;;10.32;100.00;100567.67;105005;1261;69127;-59
2023/10/08 01:13:04;;;;;;;1.60;0.70;;;;;;;10.29;100.00;100570.02;105068;1260;69199;-59
2023/10/08 01:15:35;;;;;;;2.20;0.60;;;;;;;10.26;100.00;100576.73;105091;1259;74564;-59
2023/10/08 01:18:08;;;;;;;3.70;1.00;;;;;;;10.24;100.00;100576.61;105115;1262;81491;-59
2023/10/08 01:20:37;;;;;;;2.70;0.70;;;;;;;10.22;100.00;100577.73;105023;1259;71819;-59
2023/10/08 01:23:13;;;;;;;2.60;0.80;;;;;;;10.19;100.00;100578.69;105108;1259;69192;-59
2023/10/08 01:26:09;;;;;;;2.70;0.70;;;;;;;10.16;100.00;100569.36;105054;1262;69183;-59
2023/10/08 01:28:39;;;;;;;2.70;0.70;;;;;;;10.13;100.00;100566.48;105067;1262;73868;-60
2023/10/08 01:31:10;;;;;;;2.20;0.70;;;;;;;10.13;100.00;100579.95;105126;1259;81979;-60
2023/10/08 01:33:46;;;;;;;4.60;0.90;;;;;;;10.14;100.00;100594.92;105008;1264;71544;-60
2023/10/08 01:36:14;;;;;;;3.90;0.80;;;;;;;10.14;100.00;100588.30;105088;1259;69202;-59
2023/10/08 01:38:43;;;;;;;3.10;0.60;;;;;;;10.13;100.00;100583.10;105043;1262;69169;-59
2023/10/08 01:41:19;;;;;;;2.20;0.70;;;;;;;10.14;100.00;100573.98;105047;1259;74843;-60
2023/10/08 01:43:52;;;;;;;2.40;0.70;;;;;;;10.19;100.00;100573.63;105052;1262;81513;-59
2023/10/08 01:46:22;;;;;;;2.40;0.80;;;;;;;10.22;100.00;100589.27;105056;1262;71465;-59
2023/10/08 01:49:04;;;;;;;3.40;0.70;;;;;;;10.22;100.00;100613.34;105073;1262;69118;-60
2023/10/08 01:51:39;;;;;;;2.80;0.60;;;;;;;10.23;100.00;100618.23;105072;1262;69210;-59
2023/10/08 01:54:10;;;;;;;3.40;0.80;;;;;;;10.22;100.00;100616.15;105109;1259;72622;-59
2023/10/08 01:56:44;;;;;;;2.80;0.70;;;;;;;10.21;100.00;100610.77;105099;1260;80324;-59
2023/10/08 01:59:15;;;;;;;3.60;0.90;;;;;;;10.24;100.00;100627.98;104980;1259;73016;-59
2023/10/08 02:01:45;;;;;;;3.10;0.90;;;;;;;10.23;100.00;100640.90;104913;1260;69222;-59
2023/10/08 02:04:16;;;;;;;3.30;1.00;;;;;;;10.22;100.00;100650.73;105121;1258;69295;-59
2023/10/08 02:06:45;;;;;;;4.60;1.00;;;;;;;10.20;100.00;100652.73;105029;1264;72570;-59
2023/10/08 02:09:15;;;;;;;3.60;0.80;;;;;;;10.18;100.00;100655.91;105121;1262;83383;-59
2023/10/08 02:11:45;;;;;;;3.80;0.80;;;;;;;10.19;100.00;100666.54;105057;1262;70939;-59
2023/10/08 02:14:15;;;;;;;3.30;0.90;;;;;;;10.18;100.00;100684.39;105061;1262;69158;-59
2023/10/08 02:16:44;;;;;;;2.80;1.00;;;;;;;10.16;100.00;100684.81;105073;1260;69181;-60
2023/10/08 02:19:13;;;;;;;5.00;1.00;;;;;;;10.14;100.00;100685.90;105137;1262;73138;-60
2023/10/08 02:21:42;;;;;;;6.60;1.00;;;;;;;10.13;100.00;100676.35;105088;1262;82688;-60
2023/10/08 02:24:14;;;;;;;3.60;1.30;;;;;;;10.10;100.00;100675.04;105051;1262;71343;-60
2023/10/08 02:26:43;;;;;;;5.50;1.10;;;;;;;10.08;100.00;100669.31;105091;1262;69142;-60
2023/10/08 02:29:11;;;;;;;5.40;1.80;;;;;;;10.08;100.00;100669.69;105102;1262;69193;-60
2023/10/08 02:31:40;;;;;;;5.40;1.30;;;;;;;10.05;100.00;100670.29;105061;1259;73869;-60
2023/10/08 02:34:09;;;;;;;4.00;1.20;;;;;;;10.03;100.00;100676.64;105069;1261;81458;-60
2023/10/08 02:36:40;;;;;;;3.90;1.40;;;;;;;10.00;100.00;100683.88;105079;1262;71739;-60
2023/10/08 02:39:13;;;;;;;6.80;1.40;;;;;;;9.98;100.00;100689.34;105069;1259;69308;-59
2023/10/08 02:41:42;;;;;;;5.20;1.40;;;;;;;9.99;100.00;100689.34;105043;1262;69247;-59
2023/10/08 02:44:12;;;;;;;3.30;1.20;;;;;;;9.97;100.00;100691.99;105128;1259;74219;-59
2023/10/08 02:46:47;;;;;;;5.10;1.40;;;;;;;9.97;100.00;100689.55;105040;1257;81507;-59
2023/10/08 02:49:22;;;;;;;5.50;1.30;;;;;;;9.97;100.00;100681.52;105070;1260;73035;-59
2023/10/08 02:51:54;;;;;;;5.40;1.10;;;;;;;9.95;100.00;100683.67;105065;1259;69181;-59
2023/10/08 02:54:24;;;;;;;5.20;1.30;;;;;;;9.92;100.00;100696.16;105033;1262;69203;-60
2023/10/08 02:56:58;;;;;;;6.80;1.70;;;;;;;9.91;100.00;100706.50;104907;1259;73774;-60
2023/10/08 02:59:40;;;;;;;3.60;1.10;;;;;;;9.90;100.00;100709.84;105055;1260;81502;-59
2023/10/08 03:02:18;;;;;;;5.30;1.90;;;;;;;9.92;100.00;100728.82;105086;1260;71693;-59
2023/10/08 03:04:51;;;;;;;8.20;1.90;;;;;;;9.93;100.00;100732.45;104985;1264;69160;-59
2023/10/08 03:07:26;;;;;;;3.50;1.20;;;;;;;9.93;100.00;100736.80;105086;1262;69191;-59
2023/10/08 03:10:03;;;;;;;6.10;1.10;;;;;;;9.93;100.00;100734.90;105037;1259;72518;-59
2023/10/08 03:12:33;;;;;;;4.90;1.40;;;;;;;9.92;100.00;100735.09;105119;1259;81617;-60
2023/10/08 03:17:53;;;;;;;4.00;1.20;;;;;;;9.95;100.00;100738.33;105047;1260;69110;-60
2023/10/08 03:23:25;;;;;;;5.10;1.40;;;;;;;9.91;100.00;100730.60;104773;1260;73761;-59
2023/10/08 03:26:00;;;;;;;4.90;1.50;;;;;;;9.89;100.00;100740.76;104922;1259;80837;-59
2023/10/08 03:28:30;;;;;;;5.60;1.50;;;;;;;9.87;100.00;100750.07;104928;1265;73118;-60
2023/10/08 03:31:14;;;;;;;4.90;1.90;;;;;;;9.87;100.00;100751.13;105072;1262;69616;-60
2023/10/08 03:33:48;;;;;;;5.60;1.90;;;;;;;9.84;100.00;100749.11;104995;1263;69193;-60
2023/10/08 03:36:34;;;;;;;9.60;2.00;;;;;;;9.83;100.00;100750.86;105110;1259;72536;-60
2023/10/08 03:39:12;;;;;;;7.20;2.10;;;;;;;9.82;100.00;100734.84;105109;1262;81517;-59
2023/10/08 03:41:42;;;;;;;8.40;1.80;;;;;;;9.83;100.00;100733.59;105065;1260;72025;-59
2023/10/08 03:44:12;;;;;;;9.40;2.30;;;;;;;9.84;100.00;100741.27;105113;1262;69126;-60
2023/10/08 03:46:42;;;;;;;5.70;1.70;;;;;;;9.85;100.00;100771.09;105066;1262;69175;-60
2023/10/08 03:51:53;;;;;;;7.40;2.00;;;;;;;9.87;100.00;100802.09;105086;1262;82577;-59
2023/10/08 03:54:35;;;;;;;6.00;2.30;;;;;;;9.88;100.00;100787.20;105042;1260;71871;-59
2023/10/08 03:57:13;;;;;;;8.80;2.20;;;;;;;9.89;100.00;100774.97;105050;1262;69251;-59
2023/10/08 03:59:41;;;;;;;5.40;2.20;;;;;;;9.90;100.00;100795.39;105065;1259;69110;-59
2023/10/08 04:03:11;;;;;;;6.80;2.20;;;;;;;9.93;100.00;100800.16;105091;1262;75651;-60
2023/10/08 04:05:19;;;;;;;9.10;2.60;;;;;;;9.94;100.00;100786.35;104939;1262;81784;-59
2023/10/08 04:08:17;;;;;;;8.80;2.40;;;;;;;9.92;100.00;100791.98;105077;1259;71648;-59
2023/10/08 04:13:10;;;;;;;5.90;2.10;;;;;;;9.92;100.00;100812.77;105017;1260;69208;-59
2023/10/08 04:15:42;;;;;;;6.50;2.40;;;;;;;9.93;100.00;100820.09;105067;1259;72597;-59
2023/10/08 04:18:11;;;;;;;8.60;2.40;;;;;;;9.93;100.00;100822.19;105055;1262;82114;-59
2023/10/08 04:20:39;;;;;;;6.40;3.20;;;;;;;9.92;100.00;100832.14;105033;1260;71522;-59
2023/10/08 04:23:13;;;;;;;10.50;2.40;;;;;;;9.91;100.00;100835.14;105099;1258;69215;-60
2023/10/08 04:25:42;;;;;;;9.20;2.70;;;;;;;9.90;100.00;100831.86;105065;1259;69177;-59
2023/10/08 04:28:17;;;;;;;8.10;2.50;;;;;;;9.91;100.00;100826.78;105079;1259;75093;-59
2023/10/08 04:30:47;;;;;;;7.30;3.00;;;;;;;9.90;100.00;100831.14;105085;1259;82616;-59
2023/10/08 04:33:15;;;;;;;8.80;2.70;;;;;;;9.91;100.00;100842.29;105039;1262;72729;-59
2023/10/08 04:35:48;;;;;;;8.20;2.90;;;;;;;9.90;100.00;100839.71;105050;1262;69132;-59
2023/10/08 04:38:28;;;;;;;10.80;2.60;;;;;;;9.90;100.00;100851.06;105046;1262;69218;-59
2023/10/08 04:41:01;;;;;;;8.40;2.90;;;;;;;9.91;100.00;100858.02;105068;1259;72411;-59
2023/10/08 04:43:30;;;;;;;6.00;2.90;;;;;;;9.93;100.00;100858.66;105081;1259;81915;-59
2023/10/08 04:46:08;;;;;;;6.40;2.90;;;;;;;9.96;100.00;100854.39;105084;1259;71914;-59
2023/10/08 04:48:36;;;;;;;9.30;3.00;;;;;;;9.98;100.00;100855.56;105049;1262;69275;-59
2023/10/08 04:51:05;;;;;;;10.40;3.60;;;;;;;9.98;100.00;100864.45;105047;1262;69294;-59
2023/10/08 04:53:40;;;;;;;6.20;2.70;;;;;;;9.99;100.00;100880.64;105036;1262;73465;-59
2023/10/08 04:56:14;;;;;;;11.30;3.80;;;;;;;10.01;100.00;100885.48;105097;1259;82770;-59
2023/10/08 04:58:46;;;;;;;7.40;3.30;;;;;;;10.03;100.00;100893.29;105033;1262;72040;-59
2023/10/08 05:01:18;;;;;;;9.10;3.70;;;;;;;10.05;100.00;100903.90;105062;1259;69090;-60
2023/10/08 05:06:50;;;;;;;9.10;3.80;;;;;;;10.09;100.00;100915.48;104862;1259;73616;-59
2023/10/08 05:14:28;;;;;;;10.00;4.30;;;;;;;10.12;100.00;100928.87;105012;1258;69138;-59
2023/10/08 05:17:03;;;;;;;9.50;3.80;;;;;;;10.12;100.00;100933.04;105048;1261;69288;-59
2023/10/08 05:22:18;;;;;;;7.50;3.80;;;;;;;10.13;100.00;100947.15;104995;1261;80110;-59
2023/10/08 05:49:03;;;;;;;10.90;4.80;;;;;;;10.24;100.00;101013.42;105038;1262;82749;-59
2023/10/08 06:13:10;;;;;;;6.50;4.10;;;;;;;10.43;100.00;101067.45;105187;1259;75018;-58
2023/10/08 06:18:31;;;;;;;7.40;4.00;;;;;;;10.45;100.00;101075.80;104990;1259;73430;-58
2023/10/08 06:21:11;;;;;;;9.00;4.40;;;;;;;10.43;100.00;101082.13;105234;1262;69197;-59
2023/10/08 06:23:42;;;;;;;10.50;4.20;;;;;;;10.41;100.00;101089.36;105129;1259;175674;-59
2023/10/08 06:28:39;;;;;;;11.20;3.90;;;;;;;10.37;100.00;101091.75;105100;1261;80939;-63
2023/10/08 06:31:11;;;;;;;6.10;3.60;;;;;;;10.37;100.00;101095.92;105163;1262;73072;-58
2023/10/08 06:33:40;;;;;;;8.60;3.40;;;;;;;10.41;100.00;101102.45;105163;1262;69765;-59
2023/10/08 06:38:41;;;;;;;7.90;3.80;;;;;;;10.45;100.00;101109.34;105376;1260;73715;-58
2023/10/08 06:41:17;;;;;;;5.50;3.50;;;;;;;10.47;100.00;101116.98;105218;1257;81757;-59
2023/10/08 06:44:03;;;;;;;9.80;3.70;;;;;;;10.49;100.00;101129.30;105087;1258;70781;-59
2023/10/08 06:46:34;;;;;;;7.60;3.10;;;;;;;10.47;100.00;101140.21;105220;1260;69148;-59
2023/10/08 06:49:11;;;;;;;5.90;3.10;;;;;;;10.43;100.00;101150.27;105256;1260;69245;-59
2023/10/08 06:51:43;;;;;;;6.50;3.20;;;;;;;10.40;100.00;101156.81;105134;1262;74201;-59
2023/10/08 06:54:13;;;;;;;6.70;3.00;;;;;;;10.35;100.00;101165.52;105176;1260;81443;-60
2023/10/08 06:56:46;;;;;;;6.70;2.70;;;;;;;10.29;100.00;101171.40;105150;1259;73046;-59
2023/10/08 06:59:16;;;;;;;6.80;2.90;;;;;;;10.26;100.00;101181.06;105535;1262;69141;-60
2023/10/08 07:01:51;;;;;;;7.50;2.40;;;;;;;10.24;100.00;101190.70;105465;1262;69134;-60
2023/10/08 07:04:21;;;;;;;6.90;2.80;;;;;;;10.23;100.00;101198.74;105077;1262;73881;-60
2023/10/08 07:06:51;;;;;;;6.50;2.70;;;;;;;10.29;100.00;101202.84;105109;1262;82628;-60
2023/10/08 07:11:57;;;;;;;9.10;2.90;;;;;;;10.47;100.00;101202.78;105237;1262;69211;-60
2023/10/08 07:14:27;;;;;;;4.50;2.60;;;;;;;10.54;100.00;101204.53;105073;1262;69665;-59
2023/10/08 07:17:00;;;;;;;4.50;2.10;;;;;;;10.57;100.00;101209.69;105155;1260;75143;-58
2023/10/08 07:19:37;;;;;;;4.80;2.10;;;;;;;10.53;100.00;101217.13;105197;1262;82362;-60
2023/10/08 07:22:28;;;;;;;6.30;1.90;;;;;;;10.44;100.00;101220.15;105160;1259;71884;-59
2023/10/08 07:24:57;;;;;;;5.10;1.60;;;;;;;10.32;99.62;101227.75;105258;1262;69144;-60
2023/10/08 07:27:31;;;;;;;4.00;1.30;;;;;;;10.20;99.01;101230.44;105059;1261;69183;-60
2023/10/08 07:30:04;;;;;;;3.80;1.90;;;;;;;10.10;98.80;101231.01;105188;1262;73639;-61
2023/10/08 07:32:39;;;;;;;4.30;1.20;;;;;;;10.05;98.88;101228.67;105118;1260;81574;-61
2023/10/08 07:37:48;;;;;;;2.90;1.00;;;;;;;10.00;98.13;101242.92;105107;1262;69117;-62
2023/10/08 07:40:16;;;;;;;2.40;0.80;;;;;;;9.96;97.61;101244.05;105182;1262;69202;-60
2023/10/08 07:42:44;;;;;;;3.50;0.80;;;;;;;9.95;97.52;101250.52;105126;1262;72882;-60
2023/10/08 07:45:17;;;;;;;2.50;0.70;;;;;;;9.96;97.10;101257.84;105088;1258;81479;-61
2023/10/08 07:47:46;;;;;;;2.10;0.70;;;;;;;9.96;96.87;101256.27;105239;1260;70612;-60
2023/10/08 07:50:16;;;;;;;4.00;0.80;;;;;;;9.98;96.43;101255.55;105090;1262;69160;-60
2023/10/08 07:52:44;;;;;;;2.80;0.90;;;;;;;10.00;96.36;101257.42;105174;1263;69234;-60
2023/10/08 07:55:17;;;;;;;3.30;0.80;;;;;;;10.01;96.01;101260.71;105259;1262;73709;-60
2023/10/08 07:57:46;;;;;;;2.40;0.70;;;;;;;10.06;95.83;101263.58;105167;1260;80495;-60
2023/10/08 08:00:18;;;;;;;1.60;0.60;;;;;;;10.10;95.71;101275.36;105081;1259;71838;-60
2023/10/08 08:02:47;;;;;;;1.00;0.60;;;;;;;10.17;95.60;101281.86;105170;1259;69198;-60
2023/10/08 08:05:17;;;;;;;2.90;0.90;;;;;;;10.25;95.60;101282.91;105166;1262;69141;-61
2023/10/08 08:07:52;;;;;;;2.20;0.80;;;;;;;10.32;95.13;101284.02;105288;1262;73938;-61
2023/10/08 08:10:23;;;;;;;3.00;0.90;;;;;;;10.37;94.56;101288.98;105292;1260;81939;-60
2023/10/08 08:12:56;;;;;;;4.10;0.80;;;;;;;10.43;94.01;101288.31;105321;1262;74217;-60
2023/10/08 08:15:27;;;;;;;2.20;0.80;;;;;;;10.47;93.40;101296.95;105253;1262;69130;-61
2023/10/08 08:17:55;;;;;;;0.90;0.50;;;;;;;10.54;93.38;101306.77;105260;1259;69189;-60
2023/10/08 08:20:34;;;;;;;1.90;0.80;;;;;;;10.62;92.98;101311.83;105180;1264;73930;-62
2023/10/08 08:23:06;;;;;;;2.60;0.60;;;;;;;10.69;92.48;101314.80;105303;1263;83581;-61
2023/10/08 08:25:45;;;;;;;1.40;0.70;;;;;;;10.81;92.55;101317.51;105126;1262;71756;-61
2023/10/08 08:28:16;;;;;;;2.20;0.90;;;;;;;10.92;92.15;101317.06;105092;1262;69124;-60
2023/10/08 08:30:46;;;;;;;2.40;0.50;;;;;;;11.06;92.04;101317.81;105115;1260;69668;-61
2023/10/08 08:33:22;;;;;;;3.30;0.90;;;;;;;11.19;91.65;101323.41;105121;1262;74369;-61
2023/10/08 08:35:59;;;;;;;2.00;0.50;;;;;;;11.34;91.08;101325.67;105199;1262;81993;-62
2023/10/08 08:38:32;;;;;;;1.90;0.70;;;;;;;11.44;90.27;101337.49;105213;1262;73516;-62
2023/10/08 08:41:06;;;;;;;4.60;0.80;;;;;;;11.48;89.42;101334.05;105178;1260;69181;-62
2023/10/08 08:43:35;;;;;;;2.30;0.70;;;;;;;11.56;89.16;101329.28;105169;1262;69216;-62
2023/10/08 08:46:09;;;;;;;3.10;0.70;;;;;;;11.64;88.45;101327.69;105258;1262;74071;-62
2023/10/08 08:48:44;;;;;;;2.70;0.90;;;;;;;11.71;88.26;101328.03;105292;1260;81587;-61
2023/10/08 08:51:13;;;;;;;3.50;0.90;;;;;;;11.79;87.60;101330.41;105151;1260;71765;-62
2023/10/08 08:53:42;;;;;;;5.40;0.80;;;;;;;11.87;87.28;101323.59;105091;1263;69140;-61
2023/10/08 08:56:12;;;;;;;2.60;0.90;;;;;;;11.98;87.10;101326.09;105189;1262;69160;-60
2023/10/08 08:58:42;;;;;;;1.70;0.90;;;;;;;12.04;86.46;101325.76;105273;1262;74008;-61
2023/10/08 09:01:13;;;;;;;2.60;0.70;;;;;;;12.11;85.80;101326.96;105211;1259;80955;-62
2023/10/08 09:03:41;;;;;;;2.10;0.90;;;;;;;12.21;85.67;101329.29;105276;1262;73578;-62
2023/10/08 09:06:11;;;;;;;0.80;0.50;;;;;;;12.32;84.79;101334.24;105267;1261;69064;-61
2023/10/08 09:08:45;;;;;;;1.60;0.80;;;;;;;12.40;84.06;101336.79;105169;1260;69189;-60
2023/10/08 09:11:17;;;;;;;2.90;0.80;;;;;;;12.52;83.73;101343.98;105218;1262;73731;-58
2023/10/08 09:13:45;;;;;;;2.80;1.00;;;;;;;12.57;82.94;101342.27;105491;1260;82171;-60
2023/10/08 09:16:15;;;;;;;3.50;1.80;;;;;;;12.66;82.55;101347.58;105320;1259;72186;-57
2023/10/08 09:18:45;;;;;;;0.80;0.60;;;;;;;12.79;81.87;101361.38;105166;1260;69196;-59
2023/10/08 09:21:18;;;;;;;1.10;0.60;;;;;;;12.88;80.85;101362.86;105107;1262;69202;-59
2023/10/08 09:23:54;;;;;;;1.00;0.50;;;;;;;12.98;80.31;101365.01;105246;1262;74494;-58
2023/10/08 09:26:24;;;;;;;2.60;1.00;;;;;;;13.08;79.35;101371.02;105166;1262;80744;-59
2023/10/08 09:28:53;;;;;;;;;;;;;;;13.19;79.07;101379.27;105202;1260;73307;-57
2023/10/08 09:31:24;;;;;;;0.90;0.50;;;;;;;13.27;78.13;101380.61;105256;1262;69856;-57
2023/10/08 09:33:56;;;;;;;3.40;0.50;;;;;;;13.34;77.83;101386.70;105365;1262;69223;-56
2023/10/08 09:36:31;;;;;;;1.00;0.40;;;;;;;13.47;77.73;101389.95;105188;1262;74946;-59
2023/10/08 09:39:06;;;;;;;1.20;0.40;;;;;;;13.64;77.37;101394.64;105133;1262;82576;-59
2023/10/08 09:41:36;;;;;;;1.20;0.70;;;;;;;13.81;76.99;101398.48;105206;1262;71717;-58
2023/10/08 09:44:04;;;;;;;;;;;;;;;13.95;76.03;101399.90;105212;1262;69088;-59
2023/10/08 09:46:35;;;;;;;2.40;0.70;;;;;;;14.07;75.39;101397.91;105108;1264;69154;-59
2023/10/08 09:49:07;;;;;;;1.00;0.70;;;;;;;14.16;74.77;101398.09;105567;1262;72527;-59
2023/10/08 09:51:40;;;;;;;3.00;0.90;;;;;;;14.30;74.63;101402.88;105234;1262;81789;-59
2023/10/08 09:54:18;;;;;;;2.10;0.70;;;;;;;14.46;74.17;101405.10;105291;1260;72168;-60
2023/10/08 09:56:46;;;;;;;2.20;0.70;;;;;;;14.66;73.74;101410.70;105191;1260;69010;-57
2023/10/08 09:59:15;;;;;;;1.90;1.20;;;;;;;14.80;72.89;101415.48;105090;1261;69299;-57
2023/10/08 10:01:44;;;;;;;2.90;0.80;;;;;;;14.92;72.50;101416.24;105208;1260;73539;-57
2023/10/08 10:04:24;;;;;;;2.10;0.70;;;;;;;15.07;72.14;101420.04;105164;1263;82760;-57
2023/10/08 10:06:52;;;;;;;1.80;0.90;;;;;;;15.19;71.23;101420.79;105223;1260;73908;-59
2023/10/08 10:09:21;;;;;;;1.30;0.60;;;;;;;15.35;70.93;101423.69;105087;1260;69119;-59
2023/10/08 10:11:51;;;;;;;1.20;0.60;;;;;;;15.43;69.99;101425.65;105178;1259;69142;-58
2023/10/08 10:14:25;;;;;;;2.30;0.90;;;;;;;15.54;69.67;101418.83;105171;1260;74811;-59
2023/10/08 10:17:14;;;;;;;1.40;0.70;;;;;;;15.74;69.39;101422.63;105296;1262;82922;-59
2023/10/08 10:20:03;;;;;;;1.50;0.60;;;;;;;16.05;68.96;101421.66;105127;1261;71514;-57
2023/10/08 10:22:34;;;;;;;2.50;0.60;;;;;;;16.22;68.08;101420.36;105112;1260;69184;-58
2023/10/08 10:25:21;;;;;;;2.40;0.90;;;;;;;16.40;67.50;101416.94;105311;1261;69202;-57
2023/10/08 10:27:58;;;;;;;2.50;0.60;;;;;;;16.55;66.68;101421.34;105135;1262;73463;-56
2023/10/08 10:30:27;;;;;;;3.20;0.70;;;;;;;16.69;66.22;101411.70;105122;1263;82662;-59
2023/10/08 10:33:00;;;;;;;1.50;0.60;;;;;;;16.83;65.57;101421.52;105094;1259;72711;-58
2023/10/08 10:35:29;;;;;;;2.30;0.60;;;;;;;16.94;64.67;101420.11;105215;1263;69188;-57
2023/10/08 10:38:03;;;;;;;2.20;0.80;;;;;;;17.10;64.56;101421.98;105194;1263;70028;-57
2023/10/08 10:40:41;;;;;;;1.40;0.70;;;;;;;17.31;63.95;101427.00;105229;1260;73851;-57
2023/10/08 10:43:09;;;;;;;0.90;0.50;;;;;;;17.43;63.01;101431.38;105187;1263;81791;-56
2023/10/08 10:45:42;;;;;;;1.70;0.40;;;;;;;17.44;62.28;101435.54;105078;1260;71652;-57
2023/10/08 10:48:21;;;;;;;1.20;0.40;;;;;;;17.48;61.48;101436.04;105233;1258;69152;-57
2023/10/08 10:56:47;;;;;;;0.90;0.50;;;;;;;17.75;59.97;101433.98;104857;1262;81406;-57
2023/10/08 10:59:18;;;;;;;1.20;0.40;;;;;;;17.77;59.09;101438.67;105141;1260;72042;-58
2023/10/08 11:01:52;;;;;;;1.30;0.50;;;;;;;17.78;58.49;101443.02;105124;1262;69239;-57
2023/10/08 11:04:28;;;;;;;1.10;0.60;;;;;;;17.79;57.99;101441.58;105152;1261;69210;-58
2023/10/08 11:06:58;;;;;;;1.70;0.90;;;;;;;17.83;57.53;101444.23;105171;1262;75024;-57
2023/10/08 11:09:37;;;;;;;1.40;0.40;;;;;;;17.97;57.69;101447.39;105203;1262;82863;-58
2023/10/08 11:12:12;;;;;;;1.90;0.50;;;;;;;18.17;57.14;101447.95;105189;1264;73133;-57
2023/10/08 11:14:42;;;;;;;0.90;0.50;;;;;;;18.29;56.42;101442.05;105117;1261;69169;-57
2023/10/08 11:17:20;;;;;;;1.20;0.60;;;;;;;18.31;55.70;101443.88;105334;1262;69166;-58
2023/10/08 11:19:50;;;;;;;1.50;0.60;;;;;;;18.28;55.02;101443.99;105101;1263;74753;-58
2023/10/08 11:22:22;;;;;;;1.20;0.50;;;;;;;18.31;54.64;101447.08;105068;1269;82613;-58
2023/10/08 11:24:54;;;;;;;0.70;0.60;;;;;;;18.36;54.11;101442.73;105084;1262;72922;-57
2023/10/08 11:27:37;;;;;;;1.00;0.40;;;;;;;18.43;53.63;101437.77;105019;1264;69205;-57
2023/10/08 11:30:10;;;;;;;0.70;0.50;;;;;;;18.66;53.69;101439.86;105048;1262;69215;-59
2023/10/08 11:32:41;;;;;;;1.90;0.50;;;;;;;18.80;52.92;101443.72;105067;1261;75059;-57
2023/10/08 11:35:18;;;;;;;1.00;0.50;;;;;;;18.74;52.21;101443.88;105040;1262;82768;-58
2023/10/08 11:37:50;;;;;;;1.70;0.80;;;;;;;18.80;52.14;101439.87;105068;1260;71958;-58
2023/10/08 11:41:13;;;;;;;1.20;0.70;;;;;;;18.89;52.02;101443.92;105046;1271;69221;-57
2023/10/08 11:43:15;;;;;;;0.80;0.50;;;;;;;18.98;51.63;101437.09;105016;1262;69171;-57
2023/10/08 11:45:50;;;;;;;1.50;0.70;;;;;;;19.10;51.30;101436.42;105043;1266;74873;-57
2023/10/08 11:48:25;;;;;;;1.30;0.70;;;;;;;19.24;51.33;101438.23;105070;1263;82872;-58
2023/10/08 11:50:57;;;;;;;0.90;0.50;;;;;;;19.38;50.46;101440.50;105037;1265;72894;-57
2023/10/08 11:53:25;;;;;;;1.20;0.50;;;;;;;19.39;49.89;101438.63;105058;1261;69062;-57
2023/10/08 11:55:56;;;;;;;1.40;0.30;;;;;;;19.32;49.46;101437.80;105081;1263;69126;-57
2023/10/08 11:58:37;;;;;;;0.80;0.50;;;;;;;18.99;48.85;101442.38;105090;1262;75062;-57
2023/10/08 12:01:06;;;;;;;1.40;0.80;;;;;;;19.03;48.89;101441.41;105054;1261;81519;-57
2023/10/08 12:03:34;;;;;;;0.80;0.50;;;;;;;19.11;48.71;101441.48;105035;1261;73100;-57
2023/10/08 12:06:05;;;;;;;0.80;0.40;;;;;;;19.26;48.34;101444.01;105060;1260;69210;-58
2023/10/08 12:08:39;;;;;;;0.70;0.50;;;;;;;19.39;47.90;101438.48;105072;1261;69128;-58
2023/10/08 12:11:11;;;;;;;1.80;0.70;;;;;;;19.45;47.98;101441.50;105093;1263;74286;-59
2023/10/08 12:13:44;;;;;;;1.60;0.60;;;;;;;19.35;47.46;101446.89;105092;1263;81701;-58
2023/10/08 12:16:21;;;;;;;0.70;0.40;;;;;;;19.28;47.05;101449.23;105134;1261;70615;-59
2023/10/08 12:18:53;;;;;;;0.60;0.40;;;;;;;19.20;46.92;101449.33;105049;1263;69141;-59
2023/10/08 12:21:21;;;;;;;0.70;0.50;;;;;;;19.32;46.92;101449.52;105129;1262;69170;-58
2023/10/08 12:23:51;;;;;;;1.20;0.60;;;;;;;19.46;46.97;101453.86;105091;1263;74356;-58
2023/10/08 12:26:19;;;;;;;1.00;0.40;;;;;;;19.63;46.73;101458.39;105145;1262;81725;-58
2023/10/08 12:28:48;;;;;;;0.80;0.40;;;;;;;19.72;45.99;101461.40;105066;1263;73099;-58
2023/10/08 12:31:24;;;;;;;0.80;0.40;;;;;;;19.59;45.15;101457.02;105076;1263;69160;-58
2023/10/08 12:34:00;;;;;;;1.40;0.40;;;;;;;19.48;45.09;101460.44;105019;1263;69206;-58
2023/10/08 12:36:32;;;;;;;0.40;0.30;;;;;;;19.52;45.13;101462.38;105067;1260;73942;-58
2023/10/08 12:39:08;;;;;;;1.80;0.70;;;;;;;19.61;45.00;101457.05;105007;1262;81490;-59
2023/10/08 12:41:38;;;;;;;1.90;0.40;;;;;;;19.66;44.69;101452.70;105023;1263;72813;-58
2023/10/08 12:44:08;;;;;;;1.40;0.50;;;;;;;19.42;44.32;101449.98;105062;1263;69251;-59
2023/10/08 12:46:36;;;;;;;1.50;0.70;;;;;;;19.39;44.31;101446.80;105056;1263;70692;-58
2023/10/08 12:49:04;;;;;;;1.40;0.50;;;;;;;19.54;44.58;101445.25;105099;1261;73983;-60
2023/10/08 12:51:33;;;;;;;0.40;0.40;;;;;;;19.68;44.59;101450.80;105035;1264;82719;-59
2023/10/08 12:54:06;;;;;;;2.00;0.40;;;;;;;19.69;44.20;101448.83;105078;1261;71828;-59
2023/10/08 12:56:35;;;;;;;1.30;0.50;;;;;;;19.76;44.29;101444.88;105049;1270;69215;-59
2023/10/08 12:59:06;;;;;;;1.60;0.40;;;;;;;19.87;43.76;101441.58;105114;1263;69199;-59
2023/10/08 13:01:36;;;;;;;0.50;0.30;;;;;;;19.97;43.45;101436.89;105034;1262;72787;-59
2023/10/08 13:04:12;;;;;;;;;;;;;;;20.06;43.35;101441.99;105088;1263;82867;-59
2023/10/08 13:06:45;;;;;;;2.00;0.50;;;;;;;19.96;43.07;101444.20;105030;1261;73873;-59
2023/10/08 13:09:13;;;;;;;1.20;0.50;;;;;;;19.88;42.57;101441.52;105039;1260;69181;-59
2023/10/08 13:11:42;;;;;;;1.70;0.40;;;;;;;19.61;42.56;101448.03;105023;1264;69128;-59